sensor_id;sensor_type;location;lat;lon;timestamp;P1;durP1;ratioP1;P2;durP2;ratioP2
65533;SDS011;53640;55.838;37.184;2022-12-07T00:01:27;2.30;;;1.67;;
65533;SDS011;53640;55.838;37.184;2022-12-07T00:03:56;3.95;;;1.77;;
65533;SDS011;53640;55.838;37.184;2022-12-07T00:06:30;4.15;;;1.67;;
65533;SDS011;53640;55.838;37.184;2022-12-07T00:09:20;2.58;;;1.50;;
65533;SDS011;53640;55.838;37.184;2022-12-07T00:11:50;3.72;;;2.13;;
65533;SDS011;53640;55.838;37.184;2022-12-07T00:14:17;4.40;;;1.90;;
65533;SDS011;53640;55.838;37.184;2022-12-07T00:16:44;3.55;;;2.30;;
65533;SDS011;53640;55.838;37.184;2022-12-07T00:19:11;4.07;;;2.20;;
65533;SDS011;53640;55.838;37.184;2022-12-07T00:21:39;3.08;;;2.13;;
65533;SDS011;53640;55.838;37.184;2022-12-07T00:24:06;4.38;;;2.17;;
65533;SDS011;53640;55.838;37.184;2022-12-07T00:26:36;4.50;;;2.60;;
65533;SDS011;53640;55.838;37.184;2022-12-07T00:29:07;3.72;;;1.92;;
65533;SDS011;53640;55.838;37.184;2022-12-07T00:31:37;6.88;;;1.85;;
65533;SDS011;53640;55.838;37.184;2022-12-07T00:34:05;4.93;;;2.20;;
65533;SDS011;53640;55.838;37.184;2022-12-07T00:36:33;2.88;;;1.85;;
65533;SDS011;53640;55.838;37.184;2022-12-07T00:39:00;2.90;;;1.75;;
65533;SDS011;53640;55.838;37.184;2022-12-07T00:41:27;3.97;;;2.08;;
65533;SDS011;53640;55.838;37.184;2022-12-07T00:43:54;3.05;;;2.13;;
65533;SDS011;53640;55.838;37.184;2022-12-07T00:46:21;4.10;;;1.77;;
65533;SDS011;53640;55.838;37.184;2022-12-07T00:48:48;10.15;;;2.80;;
65533;SDS011;53640;55.838;37.184;2022-12-07T00:51:16;2.55;;;1.83;;
65533;SDS011;53640;55.838;37.184;2022-12-07T00:53:43;5.32;;;2.08;;
65533;SDS011;53640;55.838;37.184;2022-12-07T00:56:14;6.10;;;2.20;;
65533;SDS011;53640;55.838;37.184;2022-12-07T00:58:43;3.43;;;2.07;;
65533;SDS011;53640;55.838;37.184;2022-12-07T01:01:15;4.35;;;2.33;;
65533;SDS011;53640;55.838;37.184;2022-12-07T01:03:41;3.33;;;1.65;;
65533;SDS011;53640;55.838;37.184;2022-12-07T01:06:07;3.90;;;2.13;;
65533;SDS011;53640;55.838;37.184;2022-12-07T01:08:33;4.15;;;2.28;;
65533;SDS011;53640;55.838;37.184;2022-12-07T01:11:00;7.05;;;2.50;;
65533;SDS011;53640;55.838;37.184;2022-12-07T01:13:29;3.92;;;2.35;;
65533;SDS011;53640;55.838;37.184;2022-12-07T01:15:57;5.20;;;2.30;;
65533;SDS011;53640;55.838;37.184;2022-12-07T01:18:28;4.10;;;2.35;;
65533;SDS011;53640;55.838;37.184;2022-12-07T01:21:04;4.95;;;2.55;;
65533;SDS011;53640;55.838;37.184;2022-12-07T01:23:32;4.50;;;2.28;;
65533;SDS011;53640;55.838;37.184;2022-12-07T01:26:00;3.88;;;2.20;;
65533;SDS011;53640;55.838;37.184;2022-12-07T01:28:30;6.22;;;2.40;;
65533;SDS011;53640;55.838;37.184;2022-12-07T01:30:57;2.67;;;2.17;;
65533;SDS011;53640;55.838;37.184;2022-12-07T01:36:01;7.28;;;2.40;;
65533;SDS011;53640;55.838;37.184;2022-12-07T01:38:30;4.13;;;2.50;;
65533;SDS011;53640;55.838;37.184;2022-12-07T01:40:57;5.22;;;2.00;;
65533;SDS011;53640;55.838;37.184;2022-12-07T01:43:25;6.32;;;2.40;;
65533;SDS011;53640;55.838;37.184;2022-12-07T01:45:54;3.10;;;2.08;;
65533;SDS011;53640;55.838;37.184;2022-12-07T01:48:26;4.70;;;2.28;;
65533;SDS011;53640;55.838;37.184;2022-12-07T01:50:56;3.10;;;2.30;;
65533;SDS011;53640;55.838;37.184;2022-12-07T01:53:26;4.38;;;2.35;;
65533;SDS011;53640;55.838;37.184;2022-12-07T01:55:55;6.57;;;2.50;;
65533;SDS011;53640;55.838;37.184;2022-12-07T01:58:23;4.47;;;2.53;;
65533;SDS011;53640;55.838;37.184;2022-12-07T02:00:50;7.32;;;2.38;;
65533;SDS011;53640;55.838;37.184;2022-12-07T02:05:43;5.85;;;2.53;;
65533;SDS011;53640;55.838;37.184;2022-12-07T02:08:10;6.18;;;2.65;;
65533;SDS011;53640;55.838;37.184;2022-12-07T02:10:38;6.55;;;2.15;;
65533;SDS011;53640;55.838;37.184;2022-12-07T02:13:10;3.95;;;2.45;;
65533;SDS011;53640;55.838;37.184;2022-12-07T02:15:49;4.35;;;2.47;;
65533;SDS011;53640;55.838;37.184;2022-12-07T02:18:47;5.53;;;2.38;;
65533;SDS011;53640;55.838;37.184;2022-12-07T02:21:59;7.82;;;2.20;;
65533;SDS011;53640;55.838;37.184;2022-12-07T02:30:45;4.20;;;2.45;;
65533;SDS011;53640;55.838;37.184;2022-12-07T02:34:01;6.13;;;3.00;;
65533;SDS011;53640;55.838;37.184;2022-12-07T02:36:46;4.88;;;2.58;;
65533;SDS011;53640;55.838;37.184;2022-12-07T02:39:10;4.93;;;2.63;;
65533;SDS011;53640;55.838;37.184;2022-12-07T02:41:43;6.72;;;3.05;;
65533;SDS011;53640;55.838;37.184;2022-12-07T02:44:18;13.35;;;3.03;;
65533;SDS011;53640;55.838;37.184;2022-12-07T02:46:55;6.80;;;2.90;;
65533;SDS011;53640;55.838;37.184;2022-12-07T02:49:27;5.43;;;2.55;;
65533;SDS011;53640;55.838;37.184;2022-12-07T02:51:55;4.68;;;2.45;;
65533;SDS011;53640;55.838;37.184;2022-12-07T02:54:21;6.55;;;3.10;;
65533;SDS011;53640;55.838;37.184;2022-12-07T02:56:50;6.05;;;2.38;;
65533;SDS011;53640;55.838;37.184;2022-12-07T03:02:25;6.93;;;3.15;;
65533;SDS011;53640;55.838;37.184;2022-12-07T03:08:00;5.18;;;3.00;;
65533;SDS011;53640;55.838;37.184;2022-12-07T03:10:50;4.85;;;2.53;;
65533;SDS011;53640;55.838;37.184;2022-12-07T03:16:21;4.15;;;2.55;;
65533;SDS011;53640;55.838;37.184;2022-12-07T03:19:01;4.03;;;2.63;;
65533;SDS011;53640;55.838;37.184;2022-12-07T03:21:43;5.55;;;2.75;;
65533;SDS011;53640;55.838;37.184;2022-12-07T03:24:14;5.32;;;2.78;;
65533;SDS011;53640;55.838;37.184;2022-12-07T03:26:46;7.13;;;2.75;;
65533;SDS011;53640;55.838;37.184;2022-12-07T03:29:18;5.20;;;2.83;;
65533;SDS011;53640;55.838;37.184;2022-12-07T03:31:59;9.15;;;3.25;;
65533;SDS011;53640;55.838;37.184;2022-12-07T03:37:29;4.90;;;2.85;;
65533;SDS011;53640;55.838;37.184;2022-12-07T03:40:06;5.45;;;2.97;;
65533;SDS011;53640;55.838;37.184;2022-12-07T03:42:38;6.80;;;2.95;;
65533;SDS011;53640;55.838;37.184;2022-12-07T03:45:05;8.68;;;3.00;;
65533;SDS011;53640;55.838;37.184;2022-12-07T03:47:34;6.20;;;3.10;;
65533;SDS011;53640;55.838;37.184;2022-12-07T03:56:02;6.90;;;3.08;;
65533;SDS011;53640;55.838;37.184;2022-12-07T03:58:29;7.10;;;2.92;;
65533;SDS011;53640;55.838;37.184;2022-12-07T04:00:56;7.03;;;2.88;;
65533;SDS011;53640;55.838;37.184;2022-12-07T04:03:22;7.22;;;3.20;;
65533;SDS011;53640;55.838;37.184;2022-12-07T04:05:49;8.93;;;3.50;;
65533;SDS011;53640;55.838;37.184;2022-12-07T04:08:15;6.03;;;2.80;;
65533;SDS011;53640;55.838;37.184;2022-12-07T04:10:41;6.43;;;3.03;;
65533;SDS011;53640;55.838;37.184;2022-12-07T04:13:08;5.45;;;3.03;;
65533;SDS011;53640;55.838;37.184;2022-12-07T04:15:34;8.02;;;3.13;;
65533;SDS011;53640;55.838;37.184;2022-12-07T04:18:00;5.57;;;2.70;;
65533;SDS011;53640;55.838;37.184;2022-12-07T04:20:26;7.28;;;3.42;;
65533;SDS011;53640;55.838;37.184;2022-12-07T04:22:53;5.82;;;3.47;;
65533;SDS011;53640;55.838;37.184;2022-12-07T04:25:19;8.95;;;3.13;;
65533;SDS011;53640;55.838;37.184;2022-12-07T04:27:45;6.50;;;3.22;;
65533;SDS011;53640;55.838;37.184;2022-12-07T04:30:11;7.18;;;2.88;;
65533;SDS011;53640;55.838;37.184;2022-12-07T04:32:38;5.93;;;3.15;;
65533;SDS011;53640;55.838;37.184;2022-12-07T04:35:04;6.47;;;3.22;;
65533;SDS011;53640;55.838;37.184;2022-12-07T04:37:31;8.88;;;3.60;;
65533;SDS011;53640;55.838;37.184;2022-12-07T04:39:59;11.38;;;2.97;;
65533;SDS011;53640;55.838;37.184;2022-12-07T04:42:25;8.75;;;3.67;;
65533;SDS011;53640;55.838;37.184;2022-12-07T04:44:51;7.57;;;3.50;;
65533;SDS011;53640;55.838;37.184;2022-12-07T04:47:17;6.93;;;3.28;;
65533;SDS011;53640;55.838;37.184;2022-12-07T04:49:45;13.13;;;3.30;;
65533;SDS011;53640;55.838;37.184;2022-12-07T04:52:11;8.88;;;3.33;;
65533;SDS011;53640;55.838;37.184;2022-12-07T04:54:37;8.25;;;3.00;;
65533;SDS011;53640;55.838;37.184;2022-12-07T04:57:04;8.25;;;3.40;;
65533;SDS011;53640;55.838;37.184;2022-12-07T04:59:30;9.32;;;3.20;;
65533;SDS011;53640;55.838;37.184;2022-12-07T05:01:56;9.25;;;3.42;;
65533;SDS011;53640;55.838;37.184;2022-12-07T05:04:22;7.88;;;3.13;;
65533;SDS011;53640;55.838;37.184;2022-12-07T05:06:49;5.50;;;3.03;;
65533;SDS011;53640;55.838;37.184;2022-12-07T05:09:15;6.60;;;3.38;;
65533;SDS011;53640;55.838;37.184;2022-12-07T05:11:41;6.13;;;3.15;;
65533;SDS011;53640;55.838;37.184;2022-12-07T05:16:40;5.85;;;3.15;;
65533;SDS011;53640;55.838;37.184;2022-12-07T05:19:07;10.88;;;3.35;;
65533;SDS011;53640;55.838;37.184;2022-12-07T05:21:36;11.75;;;3.45;;
65533;SDS011;53640;55.838;37.184;2022-12-07T05:24:03;6.22;;;3.40;;
65533;SDS011;53640;55.838;37.184;2022-12-07T05:26:31;8.25;;;3.38;;
65533;SDS011;53640;55.838;37.184;2022-12-07T05:28:57;4.82;;;2.53;;
65533;SDS011;53640;55.838;37.184;2022-12-07T05:31:24;5.85;;;2.60;;
65533;SDS011;53640;55.838;37.184;2022-12-07T05:33:51;7.20;;;3.10;;
65533;SDS011;53640;55.838;37.184;2022-12-07T05:36:18;9.45;;;3.78;;
65533;SDS011;53640;55.838;37.184;2022-12-07T05:38:44;12.15;;;3.30;;
65533;SDS011;53640;55.838;37.184;2022-12-07T05:41:13;7.38;;;3.67;;
65533;SDS011;53640;55.838;37.184;2022-12-07T05:44:00;11.55;;;4.05;;
65533;SDS011;53640;55.838;37.184;2022-12-07T05:46:27;8.52;;;3.15;;
65533;SDS011;53640;55.838;37.184;2022-12-07T05:48:53;13.10;;;3.60;;
65533;SDS011;53640;55.838;37.184;2022-12-07T05:51:19;6.18;;;3.83;;
65533;SDS011;53640;55.838;37.184;2022-12-07T05:53:46;11.65;;;3.47;;
65533;SDS011;53640;55.838;37.184;2022-12-07T05:56:12;6.78;;;3.58;;
65533;SDS011;53640;55.838;37.184;2022-12-07T05:58:39;6.53;;;3.13;;
65533;SDS011;53640;55.838;37.184;2022-12-07T06:01:24;7.40;;;3.47;;
65533;SDS011;53640;55.838;37.184;2022-12-07T06:03:50;11.95;;;3.20;;
65533;SDS011;53640;55.838;37.184;2022-12-07T06:06:16;8.15;;;3.70;;
65533;SDS011;53640;55.838;37.184;2022-12-07T06:08:42;6.20;;;3.28;;
65533;SDS011;53640;55.838;37.184;2022-12-07T06:11:09;7.40;;;3.72;;
65533;SDS011;53640;55.838;37.184;2022-12-07T06:14:04;6.43;;;3.13;;
65533;SDS011;53640;55.838;37.184;2022-12-07T06:16:30;8.13;;;3.42;;
65533;SDS011;53640;55.838;37.184;2022-12-07T06:18:57;6.45;;;3.55;;
65533;SDS011;53640;55.838;37.184;2022-12-07T06:21:23;7.47;;;3.55;;
65533;SDS011;53640;55.838;37.184;2022-12-07T06:23:51;15.23;;;4.15;;
65533;SDS011;53640;55.838;37.184;2022-12-07T06:26:17;10.75;;;4.07;;
65533;SDS011;53640;55.838;37.184;2022-12-07T06:28:44;6.63;;;3.47;;
65533;SDS011;53640;55.838;37.184;2022-12-07T06:31:10;12.15;;;4.45;;
65533;SDS011;53640;55.838;37.184;2022-12-07T06:33:37;8.82;;;3.83;;
65533;SDS011;53640;55.838;37.184;2022-12-07T06:36:03;5.18;;;3.28;;
65533;SDS011;53640;55.838;37.184;2022-12-07T06:38:30;15.20;;;4.20;;
65533;SDS011;53640;55.838;37.184;2022-12-07T06:40:56;10.90;;;4.70;;
65533;SDS011;53640;55.838;37.184;2022-12-07T06:43:22;11.68;;;3.50;;
65533;SDS011;53640;55.838;37.184;2022-12-07T06:45:49;11.38;;;4.35;;
65533;SDS011;53640;55.838;37.184;2022-12-07T06:48:15;7.18;;;3.50;;
65533;SDS011;53640;55.838;37.184;2022-12-07T06:50:43;9.35;;;4.25;;
65533;SDS011;53640;55.838;37.184;2022-12-07T06:53:10;8.35;;;3.92;;
65533;SDS011;53640;55.838;37.184;2022-12-07T06:55:37;8.05;;;4.45;;
65533;SDS011;53640;55.838;37.184;2022-12-07T06:58:03;5.15;;;3.33;;
65533;SDS011;53640;55.838;37.184;2022-12-07T07:00:30;6.78;;;3.85;;
65533;SDS011;53640;55.838;37.184;2022-12-07T07:02:56;9.77;;;3.90;;
65533;SDS011;53640;55.838;37.184;2022-12-07T07:05:23;7.90;;;4.32;;
65533;SDS011;53640;55.838;37.184;2022-12-07T07:07:50;7.50;;;3.60;;
65533;SDS011;53640;55.838;37.184;2022-12-07T07:10:19;7.80;;;4.05;;
65533;SDS011;53640;55.838;37.184;2022-12-07T07:12:55;9.57;;;4.07;;
65533;SDS011;53640;55.838;37.184;2022-12-07T07:15:32;8.95;;;4.40;;
65533;SDS011;53640;55.838;37.184;2022-12-07T07:18:03;6.30;;;3.78;;
65533;SDS011;53640;55.838;37.184;2022-12-07T07:20:29;12.00;;;4.30;;
65533;SDS011;53640;55.838;37.184;2022-12-07T07:23:09;5.38;;;3.25;;
65533;SDS011;53640;55.838;37.184;2022-12-07T07:25:40;8.18;;;3.72;;
65533;SDS011;53640;55.838;37.184;2022-12-07T07:28:08;10.27;;;3.65;;
65533;SDS011;53640;55.838;37.184;2022-12-07T07:30:36;7.47;;;3.30;;
65533;SDS011;53640;55.838;37.184;2022-12-07T07:33:16;6.78;;;3.60;;
65533;SDS011;53640;55.838;37.184;2022-12-07T07:35:45;8.07;;;3.80;;
65533;SDS011;53640;55.838;37.184;2022-12-07T07:38:12;9.98;;;3.58;;
65533;SDS011;53640;55.838;37.184;2022-12-07T07:40:52;7.63;;;3.33;;
65533;SDS011;53640;55.838;37.184;2022-12-07T07:43:21;6.70;;;3.63;;
65533;SDS011;53640;55.838;37.184;2022-12-07T07:45:48;10.60;;;4.60;;
65533;SDS011;53640;55.838;37.184;2022-12-07T07:48:14;9.93;;;3.40;;
65533;SDS011;53640;55.838;37.184;2022-12-07T07:50:41;6.15;;;3.53;;
65533;SDS011;53640;55.838;37.184;2022-12-07T07:53:07;7.88;;;3.90;;
65533;SDS011;53640;55.838;37.184;2022-12-07T07:55:34;9.27;;;4.55;;
65533;SDS011;53640;55.838;37.184;2022-12-07T07:58:00;5.22;;;3.40;;
65533;SDS011;53640;55.838;37.184;2022-12-07T08:00:26;6.90;;;3.75;;
65533;SDS011;53640;55.838;37.184;2022-12-07T08:02:53;10.23;;;4.40;;
65533;SDS011;53640;55.838;37.184;2022-12-07T08:05:19;7.47;;;3.70;;
65533;SDS011;53640;55.838;37.184;2022-12-07T08:07:45;6.28;;;3.38;;
65533;SDS011;53640;55.838;37.184;2022-12-07T08:10:12;8.23;;;3.90;;
65533;SDS011;53640;55.838;37.184;2022-12-07T08:12:40;4.93;;;3.55;;
65533;SDS011;53640;55.838;37.184;2022-12-07T08:15:27;7.45;;;3.85;;
65533;SDS011;53640;55.838;37.184;2022-12-07T08:17:54;5.68;;;3.47;;
65533;SDS011;53640;55.838;37.184;2022-12-07T08:20:21;10.38;;;4.20;;
65533;SDS011;53640;55.838;37.184;2022-12-07T08:22:47;5.22;;;3.65;;
65533;SDS011;53640;55.838;37.184;2022-12-07T08:25:14;6.07;;;3.70;;
65533;SDS011;53640;55.838;37.184;2022-12-07T08:27:40;6.45;;;3.95;;
65533;SDS011;53640;55.838;37.184;2022-12-07T08:30:07;7.57;;;3.95;;
65533;SDS011;53640;55.838;37.184;2022-12-07T08:32:52;7.45;;;3.88;;
65533;SDS011;53640;55.838;37.184;2022-12-07T08:35:19;6.60;;;4.22;;
65533;SDS011;53640;55.838;37.184;2022-12-07T08:37:45;6.85;;;3.50;;
65533;SDS011;53640;55.838;37.184;2022-12-07T08:40:12;6.13;;;3.97;;
65533;SDS011;53640;55.838;37.184;2022-12-07T08:42:42;6.53;;;3.90;;
65533;SDS011;53640;55.838;37.184;2022-12-07T08:45:11;7.68;;;4.00;;
65533;SDS011;53640;55.838;37.184;2022-12-07T08:47:50;11.38;;;4.10;;
65533;SDS011;53640;55.838;37.184;2022-12-07T08:50:20;8.15;;;3.95;;
65533;SDS011;53640;55.838;37.184;2022-12-07T08:52:50;7.45;;;4.13;;
65533;SDS011;53640;55.838;37.184;2022-12-07T08:55:21;6.70;;;4.05;;
65533;SDS011;53640;55.838;37.184;2022-12-07T08:57:47;8.95;;;4.28;;
65533;SDS011;53640;55.838;37.184;2022-12-07T09:00:14;6.28;;;3.60;;
65533;SDS011;53640;55.838;37.184;2022-12-07T09:02:43;10.38;;;4.65;;
65533;SDS011;53640;55.838;37.184;2022-12-07T09:05:10;6.80;;;3.40;;
65533;SDS011;53640;55.838;37.184;2022-12-07T09:07:37;7.50;;;4.25;;
65533;SDS011;53640;55.838;37.184;2022-12-07T09:10:04;12.75;;;4.40;;
65533;SDS011;53640;55.838;37.184;2022-12-07T09:12:31;7.85;;;3.70;;
65533;SDS011;53640;55.838;37.184;2022-12-07T09:14:58;7.50;;;3.78;;
65533;SDS011;53640;55.838;37.184;2022-12-07T09:17:27;9.10;;;3.47;;
65533;SDS011;53640;55.838;37.184;2022-12-07T09:19:53;7.38;;;4.07;;
65533;SDS011;53640;55.838;37.184;2022-12-07T09:22:19;8.35;;;4.55;;
65533;SDS011;53640;55.838;37.184;2022-12-07T09:24:46;8.18;;;4.00;;
65533;SDS011;53640;55.838;37.184;2022-12-07T09:27:12;6.72;;;4.20;;
65533;SDS011;53640;55.838;37.184;2022-12-07T09:29:39;8.00;;;4.10;;
65533;SDS011;53640;55.838;37.184;2022-12-07T09:32:05;8.45;;;4.50;;
65533;SDS011;53640;55.838;37.184;2022-12-07T09:34:31;8.05;;;4.50;;
65533;SDS011;53640;55.838;37.184;2022-12-07T09:36:58;7.60;;;4.28;;
65533;SDS011;53640;55.838;37.184;2022-12-07T09:39:28;8.20;;;3.60;;
65533;SDS011;53640;55.838;37.184;2022-12-07T09:41:56;17.80;;;4.75;;
65533;SDS011;53640;55.838;37.184;2022-12-07T09:44:25;5.90;;;3.55;;
65533;SDS011;53640;55.838;37.184;2022-12-07T09:46:52;10.35;;;3.65;;
65533;SDS011;53640;55.838;37.184;2022-12-07T09:49:21;7.55;;;4.00;;
65533;SDS011;53640;55.838;37.184;2022-12-07T09:52:03;7.00;;;4.05;;
65533;SDS011;53640;55.838;37.184;2022-12-07T09:54:30;8.82;;;4.22;;
65533;SDS011;53640;55.838;37.184;2022-12-07T09:56:58;5.40;;;3.40;;
65533;SDS011;53640;55.838;37.184;2022-12-07T09:59:24;12.32;;;4.05;;
65533;SDS011;53640;55.838;37.184;2022-12-07T10:01:51;8.27;;;3.78;;
65533;SDS011;53640;55.838;37.184;2022-12-07T10:04:24;8.25;;;3.45;;
65533;SDS011;53640;55.838;37.184;2022-12-07T10:06:51;9.35;;;3.95;;
65533;SDS011;53640;55.838;37.184;2022-12-07T10:09:19;6.22;;;3.55;;
65533;SDS011;53640;55.838;37.184;2022-12-07T10:12:00;6.38;;;3.75;;
65533;SDS011;53640;55.838;37.184;2022-12-07T10:14:30;8.00;;;4.35;;
65533;SDS011;53640;55.838;37.184;2022-12-07T10:16:58;11.85;;;4.00;;
65533;SDS011;53640;55.838;37.184;2022-12-07T10:22:09;7.50;;;3.65;;
65533;SDS011;53640;55.838;37.184;2022-12-07T10:24:39;12.60;;;4.43;;
65533;SDS011;53640;55.838;37.184;2022-12-07T10:27:18;11.68;;;4.40;;
65533;SDS011;53640;55.838;37.184;2022-12-07T10:29:50;10.50;;;4.10;;
65533;SDS011;53640;55.838;37.184;2022-12-07T10:34:44;10.48;;;4.28;;
65533;SDS011;53640;55.838;37.184;2022-12-07T10:39:44;7.88;;;4.25;;
65533;SDS011;53640;55.838;37.184;2022-12-07T10:44:45;9.27;;;4.25;;
65533;SDS011;53640;55.838;37.184;2022-12-07T10:47:55;9.00;;;4.80;;
65533;SDS011;53640;55.838;37.184;2022-12-07T11:00:59;8.55;;;4.28;;
65533;SDS011;53640;55.838;37.184;2022-12-07T11:07:04;8.00;;;4.50;;
65533;SDS011;53640;55.838;37.184;2022-12-07T11:18:08;11.18;;;4.30;;
65533;SDS011;53640;55.838;37.184;2022-12-07T11:26:39;8.57;;;4.72;;
65533;SDS011;53640;55.838;37.184;2022-12-07T11:37:24;15.15;;;4.88;;
65533;SDS011;53640;55.838;37.184;2022-12-07T11:39:59;7.28;;;4.32;;
65533;SDS011;53640;55.838;37.184;2022-12-07T11:42:51;9.18;;;4.63;;
65533;SDS011;53640;55.838;37.184;2022-12-07T11:45:32;14.77;;;4.47;;
65533;SDS011;53640;55.838;37.184;2022-12-07T11:48:01;12.82;;;4.95;;
65533;SDS011;53640;55.838;37.184;2022-12-07T11:53:10;9.27;;;4.38;;
65533;SDS011;53640;55.838;37.184;2022-12-07T12:03:41;10.40;;;4.78;;
65533;SDS011;53640;55.838;37.184;2022-12-07T12:06:13;8.18;;;4.38;;
65533;SDS011;53640;55.838;37.184;2022-12-07T12:08:45;9.88;;;4.75;;
65533;SDS011;53640;55.838;37.184;2022-12-07T12:14:14;9.23;;;4.50;;
65533;SDS011;53640;55.838;37.184;2022-12-07T12:22:27;14.18;;;4.65;;
65533;SDS011;53640;55.838;37.184;2022-12-07T12:25:04;9.48;;;4.50;;
65533;SDS011;53640;55.838;37.184;2022-12-07T12:27:34;13.85;;;5.25;;
65533;SDS011;53640;55.838;37.184;2022-12-07T12:30:06;13.68;;;5.18;;
65533;SDS011;53640;55.838;37.184;2022-12-07T12:32:51;9.40;;;4.82;;
65533;SDS011;53640;55.838;37.184;2022-12-07T12:43:58;12.25;;;5.45;;
65533;SDS011;53640;55.838;37.184;2022-12-07T12:51:51;10.18;;;5.32;;
65533;SDS011;53640;55.838;37.184;2022-12-07T12:59:31;11.05;;;5.30;;
65533;SDS011;53640;55.838;37.184;2022-12-07T13:04:48;12.50;;;5.43;;
65533;SDS011;53640;55.838;37.184;2022-12-07T13:13:02;10.13;;;5.60;;
65533;SDS011;53640;55.838;37.184;2022-12-07T13:23:25;13.13;;;6.32;;
65533;SDS011;53640;55.838;37.184;2022-12-07T13:28:42;11.73;;;5.70;;
65533;SDS011;53640;55.838;37.184;2022-12-07T13:36:54;12.65;;;6.45;;
65533;SDS011;53640;55.838;37.184;2022-12-07T13:39:25;14.27;;;6.07;;
65533;SDS011;53640;55.838;37.184;2022-12-07T13:41:56;13.88;;;6.72;;
65533;SDS011;53640;55.838;37.184;2022-12-07T13:44:25;18.80;;;7.10;;
65533;SDS011;53640;55.838;37.184;2022-12-07T13:47:05;14.35;;;7.00;;
65533;SDS011;53640;55.838;37.184;2022-12-07T13:49:51;15.65;;;6.68;;
65533;SDS011;53640;55.838;37.184;2022-12-07T13:54:59;18.70;;;6.80;;
65533;SDS011;53640;55.838;37.184;2022-12-07T13:57:32;17.92;;;7.10;;
65533;SDS011;53640;55.838;37.184;2022-12-07T14:00:06;16.30;;;6.57;;
65533;SDS011;53640;55.838;37.184;2022-12-07T14:02:54;11.23;;;6.28;;
65533;SDS011;53640;55.838;37.184;2022-12-07T14:05:28;13.98;;;6.82;;
65533;SDS011;53640;55.838;37.184;2022-12-07T14:08:03;18.23;;;7.38;;
65533;SDS011;53640;55.838;37.184;2022-12-07T14:10:37;15.90;;;7.20;;
65533;SDS011;53640;55.838;37.184;2022-12-07T14:13:27;16.08;;;6.57;;
65533;SDS011;53640;55.838;37.184;2022-12-07T14:15:57;18.33;;;7.20;;
65533;SDS011;53640;55.838;37.184;2022-12-07T14:18:28;15.10;;;7.43;;
65533;SDS011;53640;55.838;37.184;2022-12-07T14:21:21;14.82;;;7.15;;
65533;SDS011;53640;55.838;37.184;2022-12-07T14:26:40;16.77;;;6.90;;
65533;SDS011;53640;55.838;37.184;2022-12-07T14:31:51;14.95;;;7.20;;
65533;SDS011;53640;55.838;37.184;2022-12-07T14:34:19;13.05;;;6.53;;
65533;SDS011;53640;55.838;37.184;2022-12-07T14:36:47;14.48;;;7.00;;
65533;SDS011;53640;55.838;37.184;2022-12-07T14:39:13;16.50;;;6.65;;
65533;SDS011;53640;55.838;37.184;2022-12-07T14:41:39;17.02;;;7.00;;
65533;SDS011;53640;55.838;37.184;2022-12-07T14:44:23;15.02;;;7.65;;
65533;SDS011;53640;55.838;37.184;2022-12-07T14:46:50;21.85;;;7.63;;
65533;SDS011;53640;55.838;37.184;2022-12-07T14:49:17;17.60;;;6.90;;
65533;SDS011;53640;55.838;37.184;2022-12-07T14:51:44;15.50;;;6.68;;
65533;SDS011;53640;55.838;37.184;2022-12-07T14:54:16;16.38;;;7.03;;
65533;SDS011;53640;55.838;37.184;2022-12-07T14:56:44;17.95;;;6.90;;
65533;SDS011;53640;55.838;37.184;2022-12-07T14:59:17;12.23;;;5.97;;
65533;SDS011;53640;55.838;37.184;2022-12-07T15:01:44;11.10;;;6.50;;
65533;SDS011;53640;55.838;37.184;2022-12-07T15:04:11;15.68;;;7.22;;
65533;SDS011;53640;55.838;37.184;2022-12-07T15:06:37;13.80;;;6.63;;
65533;SDS011;53640;55.838;37.184;2022-12-07T15:09:04;16.80;;;6.60;;
65533;SDS011;53640;55.838;37.184;2022-12-07T15:11:30;19.75;;;7.22;;
65533;SDS011;53640;55.838;37.184;2022-12-07T15:13:57;15.18;;;7.00;;
65533;SDS011;53640;55.838;37.184;2022-12-07T15:16:37;13.95;;;6.47;;
65533;SDS011;53640;55.838;37.184;2022-12-07T15:19:18;13.98;;;6.70;;
65533;SDS011;53640;55.838;37.184;2022-12-07T15:21:50;13.68;;;6.60;;
65533;SDS011;53640;55.838;37.184;2022-12-07T15:24:16;20.50;;;6.78;;
65533;SDS011;53640;55.838;37.184;2022-12-07T15:26:42;14.90;;;6.38;;
65533;SDS011;53640;55.838;37.184;2022-12-07T15:29:12;12.32;;;6.22;;
65533;SDS011;53640;55.838;37.184;2022-12-07T15:31:40;13.18;;;6.45;;
65533;SDS011;53640;55.838;37.184;2022-12-07T15:34:25;15.75;;;6.63;;
65533;SDS011;53640;55.838;37.184;2022-12-07T15:36:54;18.00;;;7.05;;
65533;SDS011;53640;55.838;37.184;2022-12-07T15:39:20;13.00;;;6.72;;
65533;SDS011;53640;55.838;37.184;2022-12-07T15:41:47;13.65;;;6.40;;
65533;SDS011;53640;55.838;37.184;2022-12-07T15:44:14;14.85;;;6.95;;
65533;SDS011;53640;55.838;37.184;2022-12-07T15:46:59;15.85;;;7.10;;
65533;SDS011;53640;55.838;37.184;2022-12-07T15:49:26;17.58;;;6.57;;
65533;SDS011;53640;55.838;37.184;2022-12-07T15:51:53;15.32;;;6.75;;
65533;SDS011;53640;55.838;37.184;2022-12-07T15:54:21;22.60;;;7.00;;
65533;SDS011;53640;55.838;37.184;2022-12-07T15:56:52;14.18;;;6.40;;
65533;SDS011;53640;55.838;37.184;2022-12-07T15:59:18;17.27;;;7.25;;
65533;SDS011;53640;55.838;37.184;2022-12-07T16:01:45;13.93;;;6.38;;
65533;SDS011;53640;55.838;37.184;2022-12-07T16:04:12;13.88;;;6.50;;
65533;SDS011;53640;55.838;37.184;2022-12-07T16:06:38;14.00;;;6.63;;
65533;SDS011;53640;55.838;37.184;2022-12-07T16:09:05;17.25;;;7.32;;
65533;SDS011;53640;55.838;37.184;2022-12-07T16:11:32;11.57;;;6.10;;
65533;SDS011;53640;55.838;37.184;2022-12-07T16:13:58;15.77;;;6.10;;
65533;SDS011;53640;55.838;37.184;2022-12-07T16:16:25;12.60;;;5.82;;
65533;SDS011;53640;55.838;37.184;2022-12-07T16:18:53;17.48;;;7.70;;
65533;SDS011;53640;55.838;37.184;2022-12-07T16:21:19;14.60;;;6.40;;
65533;SDS011;53640;55.838;37.184;2022-12-07T16:23:46;12.60;;;5.82;;
65533;SDS011;53640;55.838;37.184;2022-12-07T16:26:16;24.20;;;6.47;;
65533;SDS011;53640;55.838;37.184;2022-12-07T16:31:12;13.77;;;5.97;;
65533;SDS011;53640;55.838;37.184;2022-12-07T16:33:40;17.42;;;6.88;;
65533;SDS011;53640;55.838;37.184;2022-12-07T16:36:09;15.20;;;6.13;;
65533;SDS011;53640;55.838;37.184;2022-12-07T16:38:36;17.15;;;6.60;;
65533;SDS011;53640;55.838;37.184;2022-12-07T16:41:06;19.45;;;6.40;;
65533;SDS011;53640;55.838;37.184;2022-12-07T16:43:34;12.75;;;6.50;;
65533;SDS011;53640;55.838;37.184;2022-12-07T16:46:00;14.55;;;6.85;;
65533;SDS011;53640;55.838;37.184;2022-12-07T16:48:28;14.68;;;5.97;;
65533;SDS011;53640;55.838;37.184;2022-12-07T16:50:54;14.38;;;6.63;;
65533;SDS011;53640;55.838;37.184;2022-12-07T16:53:21;17.48;;;7.38;;
65533;SDS011;53640;55.838;37.184;2022-12-07T16:55:49;15.18;;;6.45;;
65533;SDS011;53640;55.838;37.184;2022-12-07T16:58:17;15.20;;;6.50;;
65533;SDS011;53640;55.838;37.184;2022-12-07T17:00:44;15.75;;;6.82;;
65533;SDS011;53640;55.838;37.184;2022-12-07T17:03:12;14.80;;;6.65;;
65533;SDS011;53640;55.838;37.184;2022-12-07T17:05:39;16.80;;;6.32;;
65533;SDS011;53640;55.838;37.184;2022-12-07T17:08:06;15.70;;;7.20;;
65533;SDS011;53640;55.838;37.184;2022-12-07T17:10:34;14.25;;;6.70;;
65533;SDS011;53640;55.838;37.184;2022-12-07T17:13:02;17.77;;;7.07;;
65533;SDS011;53640;55.838;37.184;2022-12-07T17:18:22;15.30;;;6.72;;
65533;SDS011;53640;55.838;37.184;2022-12-07T17:20:49;14.60;;;6.40;;